sensor_id;sensor_type;location;lat;lon;timestamp;P1;durP1;ratioP1;P2;durP2;ratioP2
64094;SDS011;50353;51.420;5.682;2023-05-16T00:02:04;19.35;;;3.47;;
64094;SDS011;50353;51.420;5.682;2023-05-16T00:04:30;8.57;;;2.40;;
64094;SDS011;50353;51.420;5.682;2023-05-16T00:06:56;13.05;;;3.63;;
64094;SDS011;50353;51.420;5.682;2023-05-16T00:09:22;12.70;;;2.78;;
64094;SDS011;50353;51.420;5.682;2023-05-16T00:11:47;11.55;;;2.70;;
64094;SDS011;50353;51.420;5.682;2023-05-16T00:14:14;12.90;;;3.03;;
64094;SDS011;50353;51.420;5.682;2023-05-16T00:16:39;11.13;;;2.70;;
64094;SDS011;50353;51.420;5.682;2023-05-16T00:19:05;14.52;;;3.38;;
64094;SDS011;50353;51.420;5.682;2023-05-16T00:21:31;9.43;;;2.63;;
64094;SDS011;50353;51.420;5.682;2023-05-16T00:23:57;11.07;;;2.80;;
64094;SDS011;50353;51.420;5.682;2023-05-16T00:26:22;11.25;;;2.90;;
64094;SDS011;50353;51.420;5.682;2023-05-16T00:28:47;9.75;;;2.70;;
64094;SDS011;50353;51.420;5.682;2023-05-16T00:31:13;13.07;;;3.25;;
64094;SDS011;50353;51.420;5.682;2023-05-16T00:33:38;9.80;;;2.42;;
64094;SDS011;50353;51.420;5.682;2023-05-16T00:36:03;12.63;;;3.17;;
64094;SDS011;50353;51.420;5.682;2023-05-16T00:38:29;12.68;;;3.38;;
64094;SDS011;50353;51.420;5.682;2023-05-16T00:40:54;10.57;;;3.15;;
64094;SDS011;50353;51.420;5.682;2023-05-16T00:43:19;11.93;;;3.10;;
64094;SDS011;50353;51.420;5.682;2023-05-16T00:45:44;16.70;;;3.42;;
64094;SDS011;50353;51.420;5.682;2023-05-16T00:48:11;13.35;;;2.90;;
64094;SDS011;50353;51.420;5.682;2023-05-16T00:50:37;14.73;;;3.10;;
64094;SDS011;50353;51.420;5.682;2023-05-16T00:53:03;11.50;;;2.85;;
64094;SDS011;50353;51.420;5.682;2023-05-16T00:55:28;11.57;;;2.60;;
64094;SDS011;50353;51.420;5.682;2023-05-16T00:57:55;16.55;;;3.40;;
64094;SDS011;50353;51.420;5.682;2023-05-16T01:00:22;14.15;;;3.58;;
64094;SDS011;50353;51.420;5.682;2023-05-16T01:02:48;13.18;;;3.28;;
64094;SDS011;50353;51.420;5.682;2023-05-16T01:05:15;15.05;;;3.45;;
64094;SDS011;50353;51.420;5.682;2023-05-16T01:07:41;13.48;;;3.30;;
64094;SDS011;50353;51.420;5.682;2023-05-16T01:10:06;16.13;;;3.45;;
64094;SDS011;50353;51.420;5.682;2023-05-16T01:15:28;20.48;;;3.30;;
64094;SDS011;50353;51.420;5.682;2023-05-16T01:18:02;15.85;;;3.40;;
64094;SDS011;50353;51.420;5.682;2023-05-16T01:26:23;18.00;;;3.72;;
64094;SDS011;50353;51.420;5.682;2023-05-16T01:28:51;19.83;;;3.40;;
64094;SDS011;50353;51.420;5.682;2023-05-16T01:31:16;18.38;;;4.47;;
64094;SDS011;50353;51.420;5.682;2023-05-16T01:33:42;14.77;;;3.55;;
64094;SDS011;50353;51.420;5.682;2023-05-16T01:39:06;16.95;;;3.42;;
64094;SDS011;50353;51.420;5.682;2023-05-16T01:46:46;19.10;;;4.30;;
64094;SDS011;50353;51.420;5.682;2023-05-16T01:49:19;17.50;;;3.83;;
64094;SDS011;50353;51.420;5.682;2023-05-16T01:51:51;23.13;;;4.00;;
64094;SDS011;50353;51.420;5.682;2023-05-16T01:54:26;16.63;;;3.22;;
64094;SDS011;50353;51.420;5.682;2023-05-16T01:56:55;17.52;;;3.45;;
64094;SDS011;50353;51.420;5.682;2023-05-16T01:59:22;19.55;;;3.55;;
64094;SDS011;50353;51.420;5.682;2023-05-16T02:01:48;20.70;;;4.03;;
64094;SDS011;50353;51.420;5.682;2023-05-16T02:04:16;20.17;;;3.50;;
64094;SDS011;50353;51.420;5.682;2023-05-16T02:06:42;19.58;;;3.70;;
64094;SDS011;50353;51.420;5.682;2023-05-16T02:09:07;17.25;;;4.03;;
64094;SDS011;50353;51.420;5.682;2023-05-16T02:11:33;17.13;;;4.03;;
64094;SDS011;50353;51.420;5.682;2023-05-16T02:13:58;12.88;;;3.33;;
64094;SDS011;50353;51.420;5.682;2023-05-16T02:16:23;20.10;;;3.88;;
64094;SDS011;50353;51.420;5.682;2023-05-16T02:18:49;18.00;;;3.80;;
64094;SDS011;50353;51.420;5.682;2023-05-16T02:21:14;18.63;;;4.55;;
64094;SDS011;50353;51.420;5.682;2023-05-16T02:23:40;20.75;;;3.70;;
64094;SDS011;50353;51.420;5.682;2023-05-16T02:26:05;18.67;;;3.30;;
64094;SDS011;50353;51.420;5.682;2023-05-16T02:28:30;17.77;;;3.53;;
64094;SDS011;50353;51.420;5.682;2023-05-16T02:30:56;17.38;;;3.22;;
64094;SDS011;50353;51.420;5.682;2023-05-16T02:33:25;14.40;;;3.17;;
64094;SDS011;50353;51.420;5.682;2023-05-16T02:35:52;13.98;;;3.30;;
64094;SDS011;50353;51.420;5.682;2023-05-16T02:38:17;18.70;;;3.30;;
64094;SDS011;50353;51.420;5.682;2023-05-16T02:40:45;13.63;;;3.53;;
64094;SDS011;50353;51.420;5.682;2023-05-16T02:43:13;12.82;;;3.00;;
64094;SDS011;50353;51.420;5.682;2023-05-16T02:45:38;18.02;;;3.80;;
64094;SDS011;50353;51.420;5.682;2023-05-16T02:48:04;15.32;;;3.38;;
64094;SDS011;50353;51.420;5.682;2023-05-16T02:50:29;17.35;;;3.13;;
64094;SDS011;50353;51.420;5.682;2023-05-16T02:52:55;18.00;;;4.10;;
64094;SDS011;50353;51.420;5.682;2023-05-16T02:55:21;14.88;;;3.45;;
64094;SDS011;50353;51.420;5.682;2023-05-16T02:57:46;23.60;;;3.88;;
64094;SDS011;50353;51.420;5.682;2023-05-16T03:00:11;12.68;;;3.15;;
64094;SDS011;50353;51.420;5.682;2023-05-16T03:02:38;15.73;;;3.35;;
64094;SDS011;50353;51.420;5.682;2023-05-16T03:05:03;14.57;;;3.28;;
64094;SDS011;50353;51.420;5.682;2023-05-16T03:07:30;16.90;;;3.50;;
64094;SDS011;50353;51.420;5.682;2023-05-16T03:09:55;16.00;;;3.20;;
64094;SDS011;50353;51.420;5.682;2023-05-16T03:12:20;14.85;;;3.33;;
64094;SDS011;50353;51.420;5.682;2023-05-16T03:14:45;18.50;;;3.95;;
64094;SDS011;50353;51.420;5.682;2023-05-16T03:17:11;16.33;;;3.33;;
64094;SDS011;50353;51.420;5.682;2023-05-16T03:19:36;16.40;;;3.75;;
64094;SDS011;50353;51.420;5.682;2023-05-16T03:22:01;18.98;;;3.70;;
64094;SDS011;50353;51.420;5.682;2023-05-16T03:24:27;21.57;;;4.00;;
64094;SDS011;50353;51.420;5.682;2023-05-16T03:26:53;13.85;;;2.95;;
64094;SDS011;50353;51.420;5.682;2023-05-16T03:29:18;16.48;;;3.20;;
64094;SDS011;50353;51.420;5.682;2023-05-16T03:31:43;18.55;;;3.47;;
64094;SDS011;50353;51.420;5.682;2023-05-16T03:34:09;13.98;;;2.97;;
64094;SDS011;50353;51.420;5.682;2023-05-16T03:36:34;9.88;;;2.65;;
64094;SDS011;50353;51.420;5.682;2023-05-16T03:38:59;17.15;;;3.33;;
64094;SDS011;50353;51.420;5.682;2023-05-16T03:41:25;20.55;;;3.65;;
64094;SDS011;50353;51.420;5.682;2023-05-16T03:43:50;16.98;;;4.13;;
64094;SDS011;50353;51.420;5.682;2023-05-16T03:46:15;16.83;;;3.17;;
64094;SDS011;50353;51.420;5.682;2023-05-16T03:48:41;18.90;;;3.28;;
64094;SDS011;50353;51.420;5.682;2023-05-16T03:51:06;12.75;;;3.40;;
64094;SDS011;50353;51.420;5.682;2023-05-16T03:53:31;14.25;;;3.67;;
64094;SDS011;50353;51.420;5.682;2023-05-16T03:55:57;16.80;;;3.28;;
64094;SDS011;50353;51.420;5.682;2023-05-16T03:58:23;12.27;;;2.90;;
64094;SDS011;50353;51.420;5.682;2023-05-16T04:00:48;17.27;;;3.45;;
64094;SDS011;50353;51.420;5.682;2023-05-16T04:03:13;18.70;;;3.85;;
64094;SDS011;50353;51.420;5.682;2023-05-16T04:05:38;16.15;;;3.47;;
64094;SDS011;50353;51.420;5.682;2023-05-16T04:08:04;12.35;;;3.13;;
64094;SDS011;50353;51.420;5.682;2023-05-16T04:10:29;14.38;;;3.10;;
64094;SDS011;50353;51.420;5.682;2023-05-16T04:12:55;20.15;;;3.33;;
64094;SDS011;50353;51.420;5.682;2023-05-16T04:15:20;19.20;;;3.72;;
64094;SDS011;50353;51.420;5.682;2023-05-16T04:17:45;20.33;;;3.72;;
64094;SDS011;50353;51.420;5.682;2023-05-16T04:20:10;17.98;;;3.72;;
64094;SDS011;50353;51.420;5.682;2023-05-16T04:22:36;16.85;;;3.67;;
64094;SDS011;50353;51.420;5.682;2023-05-16T04:25:01;17.17;;;3.53;;
64094;SDS011;50353;51.420;5.682;2023-05-16T04:27:26;18.45;;;3.65;;
64094;SDS011;50353;51.420;5.682;2023-05-16T04:29:52;11.82;;;3.08;;
64094;SDS011;50353;51.420;5.682;2023-05-16T04:32:18;14.60;;;3.28;;
64094;SDS011;50353;51.420;5.682;2023-05-16T04:34:43;20.63;;;3.70;;
64094;SDS011;50353;51.420;5.682;2023-05-16T04:37:10;14.15;;;3.33;;
64094;SDS011;50353;51.420;5.682;2023-05-16T04:39:36;17.33;;;3.95;;
64094;SDS011;50353;51.420;5.682;2023-05-16T04:42:01;14.73;;;3.50;;
64094;SDS011;50353;51.420;5.682;2023-05-16T04:44:28;16.58;;;3.45;;
64094;SDS011;50353;51.420;5.682;2023-05-16T04:46:53;19.63;;;3.63;;
64094;SDS011;50353;51.420;5.682;2023-05-16T04:49:19;17.42;;;4.22;;
64094;SDS011;50353;51.420;5.682;2023-05-16T04:51:45;18.13;;;3.95;;
64094;SDS011;50353;51.420;5.682;2023-05-16T04:56:37;17.80;;;3.83;;
64094;SDS011;50353;51.420;5.682;2023-05-16T04:59:02;15.98;;;3.85;;
64094;SDS011;50353;51.420;5.682;2023-05-16T05:01:28;15.23;;;3.35;;
64094;SDS011;50353;51.420;5.682;2023-05-16T05:03:53;19.40;;;3.97;;
64094;SDS011;50353;51.420;5.682;2023-05-16T05:06:19;21.70;;;3.95;;
64094;SDS011;50353;51.420;5.682;2023-05-16T05:08:44;14.73;;;3.78;;
64094;SDS011;50353;51.420;5.682;2023-05-16T05:11:09;18.90;;;4.05;;
64094;SDS011;50353;51.420;5.682;2023-05-16T05:13:35;18.88;;;3.92;;
64094;SDS011;50353;51.420;5.682;2023-05-16T05:16:00;17.88;;;3.30;;
64094;SDS011;50353;51.420;5.682;2023-05-16T05:18:28;17.23;;;3.85;;
64094;SDS011;50353;51.420;5.682;2023-05-16T05:20:54;18.05;;;4.43;;
64094;SDS011;50353;51.420;5.682;2023-05-16T05:23:19;16.70;;;3.72;;
64094;SDS011;50353;51.420;5.682;2023-05-16T05:25:44;16.98;;;3.67;;
64094;SDS011;50353;51.420;5.682;2023-05-16T05:28:10;14.13;;;3.50;;
64094;SDS011;50353;51.420;5.682;2023-05-16T05:30:35;18.25;;;3.80;;
64094;SDS011;50353;51.420;5.682;2023-05-16T05:33:00;15.82;;;3.47;;
64094;SDS011;50353;51.420;5.682;2023-05-16T05:35:26;15.15;;;3.30;;
64094;SDS011;50353;51.420;5.682;2023-05-16T05:37:51;16.85;;;3.47;;
64094;SDS011;50353;51.420;5.682;2023-05-16T05:40:16;22.52;;;4.22;;
64094;SDS011;50353;51.420;5.682;2023-05-16T05:42:42;17.70;;;4.22;;
64094;SDS011;50353;51.420;5.682;2023-05-16T05:45:07;13.57;;;3.10;;
64094;SDS011;50353;51.420;5.682;2023-05-16T05:47:32;14.68;;;3.55;;
64094;SDS011;50353;51.420;5.682;2023-05-16T05:49:58;17.52;;;3.28;;
64094;SDS011;50353;51.420;5.682;2023-05-16T05:52:23;13.32;;;2.95;;
64094;SDS011;50353;51.420;5.682;2023-05-16T05:54:49;18.08;;;3.95;;
64094;SDS011;50353;51.420;5.682;2023-05-16T05:57:14;11.85;;;3.10;;
64094;SDS011;50353;51.420;5.682;2023-05-16T05:59:40;17.02;;;3.42;;
64094;SDS011;50353;51.420;5.682;2023-05-16T06:02:05;13.25;;;3.25;;
64094;SDS011;50353;51.420;5.682;2023-05-16T06:04:31;10.73;;;3.75;;
64094;SDS011;50353;51.420;5.682;2023-05-16T06:06:57;15.50;;;3.47;;
64094;SDS011;50353;51.420;5.682;2023-05-16T06:09:22;16.13;;;3.50;;
64094;SDS011;50353;51.420;5.682;2023-05-16T06:11:48;18.50;;;3.78;;
64094;SDS011;50353;51.420;5.682;2023-05-16T06:14:14;18.87;;;3.60;;
64094;SDS011;50353;51.420;5.682;2023-05-16T06:16:40;18.25;;;3.38;;
64094;SDS011;50353;51.420;5.682;2023-05-16T06:19:05;18.33;;;3.45;;
64094;SDS011;50353;51.420;5.682;2023-05-16T06:21:31;12.95;;;3.17;;
64094;SDS011;50353;51.420;5.682;2023-05-16T06:23:57;14.90;;;3.17;;
64094;SDS011;50353;51.420;5.682;2023-05-16T06:26:22;11.63;;;2.90;;
64094;SDS011;50353;51.420;5.682;2023-05-16T06:28:48;12.05;;;3.38;;
64094;SDS011;50353;51.420;5.682;2023-05-16T06:31:13;17.13;;;3.03;;
64094;SDS011;50353;51.420;5.682;2023-05-16T06:33:39;13.77;;;2.92;;
64094;SDS011;50353;51.420;5.682;2023-05-16T06:36:04;12.07;;;3.08;;
64094;SDS011;50353;51.420;5.682;2023-05-16T06:38:30;11.55;;;2.72;;
64094;SDS011;50353;51.420;5.682;2023-05-16T06:40:55;12.18;;;3.03;;
64094;SDS011;50353;51.420;5.682;2023-05-16T06:43:20;13.02;;;3.10;;
64094;SDS011;50353;51.420;5.682;2023-05-16T06:45:46;12.90;;;3.25;;
64094;SDS011;50353;51.420;5.682;2023-05-16T06:48:12;10.52;;;2.15;;
64094;SDS011;50353;51.420;5.682;2023-05-16T06:50:39;15.32;;;2.90;;
64094;SDS011;50353;51.420;5.682;2023-05-16T06:53:04;13.38;;;2.83;;
64094;SDS011;50353;51.420;5.682;2023-05-16T06:55:31;14.07;;;2.63;;
64094;SDS011;50353;51.420;5.682;2023-05-16T06:57:56;10.93;;;2.85;;
64094;SDS011;50353;51.420;5.682;2023-05-16T07:00:22;11.90;;;2.85;;
64094;SDS011;50353;51.420;5.682;2023-05-16T07:02:47;15.73;;;3.38;;
64094;SDS011;50353;51.420;5.682;2023-05-16T07:05:12;11.68;;;2.72;;
64094;SDS011;50353;51.420;5.682;2023-05-16T07:07:38;12.70;;;2.70;;
64094;SDS011;50353;51.420;5.682;2023-05-16T07:10:03;8.90;;;2.70;;
64094;SDS011;50353;51.420;5.682;2023-05-16T07:12:28;8.10;;;2.22;;
64094;SDS011;50353;51.420;5.682;2023-05-16T07:14:54;12.15;;;2.80;;
64094;SDS011;50353;51.420;5.682;2023-05-16T07:17:19;14.13;;;2.63;;
64094;SDS011;50353;51.420;5.682;2023-05-16T07:19:44;12.32;;;3.30;;
64094;SDS011;50353;51.420;5.682;2023-05-16T07:22:10;13.45;;;2.88;;
64094;SDS011;50353;51.420;5.682;2023-05-16T07:24:36;13.38;;;2.72;;
64094;SDS011;50353;51.420;5.682;2023-05-16T07:27:01;11.85;;;2.67;;
64094;SDS011;50353;51.420;5.682;2023-05-16T07:29:26;10.32;;;2.78;;
64094;SDS011;50353;51.420;5.682;2023-05-16T07:31:52;13.10;;;2.97;;
64094;SDS011;50353;51.420;5.682;2023-05-16T07:34:17;10.95;;;2.55;;
64094;SDS011;50353;51.420;5.682;2023-05-16T07:36:42;8.90;;;2.85;;
64094;SDS011;50353;51.420;5.682;2023-05-16T07:39:07;8.93;;;2.15;;
64094;SDS011;50353;51.420;5.682;2023-05-16T07:41:33;10.95;;;2.67;;
64094;SDS011;50353;51.420;5.682;2023-05-16T07:43:58;12.68;;;3.08;;
64094;SDS011;50353;51.420;5.682;2023-05-16T07:46:23;16.45;;;3.22;;
64094;SDS011;50353;51.420;5.682;2023-05-16T07:48:49;12.95;;;2.65;;
64094;SDS011;50353;51.420;5.682;2023-05-16T07:51:14;11.63;;;3.00;;
64094;SDS011;50353;51.420;5.682;2023-05-16T07:53:40;12.82;;;2.80;;
64094;SDS011;50353;51.420;5.682;2023-05-16T07:56:06;13.07;;;2.60;;
64094;SDS011;50353;51.420;5.682;2023-05-16T07:58:31;12.20;;;2.47;;
64094;SDS011;50353;51.420;5.682;2023-05-16T08:00:57;14.18;;;2.90;;
64094;SDS011;50353;51.420;5.682;2023-05-16T08:03:22;9.77;;;2.40;;
64094;SDS011;50353;51.420;5.682;2023-05-16T08:05:48;14.50;;;2.53;;
64094;SDS011;50353;51.420;5.682;2023-05-16T08:08:13;5.80;;;1.92;;
64094;SDS011;50353;51.420;5.682;2023-05-16T08:10:39;11.23;;;2.67;;
64094;SDS011;50353;51.420;5.682;2023-05-16T08:13:04;10.10;;;2.38;;
64094;SDS011;50353;51.420;5.682;2023-05-16T08:15:29;8.48;;;2.58;;
64094;SDS011;50353;51.420;5.682;2023-05-16T08:17:56;8.95;;;2.22;;
64094;SDS011;50353;51.420;5.682;2023-05-16T08:20:22;11.57;;;2.65;;
64094;SDS011;50353;51.420;5.682;2023-05-16T08:22:48;10.15;;;2.70;;
64094;SDS011;50353;51.420;5.682;2023-05-16T08:25:13;8.05;;;2.30;;
64094;SDS011;50353;51.420;5.682;2023-05-16T08:27:38;7.80;;;2.28;;
64094;SDS011;50353;51.420;5.682;2023-05-16T08:30:05;7.05;;;2.10;;
64094;SDS011;50353;51.420;5.682;2023-05-16T08:32:31;7.80;;;2.70;;
64094;SDS011;50353;51.420;5.682;2023-05-16T08:34:56;5.95;;;2.05;;
64094;SDS011;50353;51.420;5.682;2023-05-16T08:37:21;8.98;;;2.10;;
64094;SDS011;50353;51.420;5.682;2023-05-16T08:39:47;14.13;;;2.60;;
64094;SDS011;50353;51.420;5.682;2023-05-16T08:42:12;8.25;;;2.63;;
64094;SDS011;50353;51.420;5.682;2023-05-16T08:44:37;9.15;;;2.50;;
64094;SDS011;50353;51.420;5.682;2023-05-16T08:47:10;7.82;;;1.90;;
64094;SDS011;50353;51.420;5.682;2023-05-16T08:49:38;7.07;;;2.30;;
64094;SDS011;50353;51.420;5.682;2023-05-16T08:52:06;12.23;;;2.10;;
64094;SDS011;50353;51.420;5.682;2023-05-16T08:54:34;7.65;;;2.15;;
64094;SDS011;50353;51.420;5.682;2023-05-16T08:57:01;6.38;;;2.00;;
64094;SDS011;50353;51.420;5.682;2023-05-16T08:59:27;6.15;;;2.03;;
64094;SDS011;50353;51.420;5.682;2023-05-16T09:01:52;10.70;;;2.60;;
64094;SDS011;50353;51.420;5.682;2023-05-16T09:04:19;10.85;;;2.35;;
64094;SDS011;50353;51.420;5.682;2023-05-16T09:06:44;7.90;;;2.20;;
64094;SDS011;50353;51.420;5.682;2023-05-16T09:09:10;6.05;;;2.20;;
64094;SDS011;50353;51.420;5.682;2023-05-16T09:11:36;7.82;;;1.75;;
64094;SDS011;50353;51.420;5.682;2023-05-16T09:14:02;10.18;;;2.38;;
64094;SDS011;50353;51.420;5.682;2023-05-16T09:16:29;7.70;;;2.00;;
64094;SDS011;50353;51.420;5.682;2023-05-16T09:18:56;8.23;;;2.10;;
64094;SDS011;50353;51.420;5.682;2023-05-16T09:21:25;10.82;;;2.53;;
64094;SDS011;50353;51.420;5.682;2023-05-16T09:23:55;7.82;;;2.35;;
64094;SDS011;50353;51.420;5.682;2023-05-16T09:26:21;6.50;;;2.00;;
64094;SDS011;50353;51.420;5.682;2023-05-16T09:28:47;8.98;;;2.13;;
64094;SDS011;50353;51.420;5.682;2023-05-16T09:31:19;7.97;;;2.15;;
64094;SDS011;50353;51.420;5.682;2023-05-16T09:33:45;12.30;;;2.40;;
64094;SDS011;50353;51.420;5.682;2023-05-16T09:36:10;9.38;;;1.90;;
64094;SDS011;50353;51.420;5.682;2023-05-16T09:38:36;10.23;;;2.45;;
64094;SDS011;50353;51.420;5.682;2023-05-16T09:41:01;12.73;;;2.60;;
64094;SDS011;50353;51.420;5.682;2023-05-16T09:43:27;9.32;;;2.10;;
64094;SDS011;50353;51.420;5.682;2023-05-16T09:45:52;9.57;;;2.13;;
64094;SDS011;50353;51.420;5.682;2023-05-16T09:48:19;9.73;;;1.98;;
64094;SDS011;50353;51.420;5.682;2023-05-16T09:50:49;8.32;;;2.25;;
64094;SDS011;50353;51.420;5.682;2023-05-16T09:53:16;7.72;;;1.83;;
64094;SDS011;50353;51.420;5.682;2023-05-16T09:55:48;8.63;;;1.95;;
64094;SDS011;50353;51.420;5.682;2023-05-16T09:58:27;10.57;;;2.08;;
64094;SDS011;50353;51.420;5.682;2023-05-16T10:00:53;10.13;;;2.03;;
64094;SDS011;50353;51.420;5.682;2023-05-16T10:03:21;7.20;;;2.30;;
64094;SDS011;50353;51.420;5.682;2023-05-16T10:05:47;7.90;;;2.00;;
64094;SDS011;50353;51.420;5.682;2023-05-16T10:08:12;8.70;;;1.92;;
64094;SDS011;50353;51.420;5.682;2023-05-16T10:10:39;6.05;;;1.77;;
64094;SDS011;50353;51.420;5.682;2023-05-16T10:13:06;7.20;;;1.60;;
64094;SDS011;50353;51.420;5.682;2023-05-16T10:15:33;7.13;;;1.80;;
64094;SDS011;50353;51.420;5.682;2023-05-16T10:18:00;7.85;;;2.10;;
64094;SDS011;50353;51.420;5.682;2023-05-16T10:20:27;5.55;;;2.17;;
64094;SDS011;50353;51.420;5.682;2023-05-16T10:22:54;9.50;;;2.00;;
64094;SDS011;50353;51.420;5.682;2023-05-16T10:28:00;4.55;;;1.80;;
64094;SDS011;50353;51.420;5.682;2023-05-16T10:30:26;10.75;;;2.42;;
64094;SDS011;50353;51.420;5.682;2023-05-16T10:32:52;10.65;;;2.30;;
64094;SDS011;50353;51.420;5.682;2023-05-16T10:35:18;13.65;;;2.13;;
64094;SDS011;50353;51.420;5.682;2023-05-16T10:40:10;9.17;;;2.10;;
64094;SDS011;50353;51.420;5.682;2023-05-16T10:42:36;11.18;;;2.35;;
64094;SDS011;50353;51.420;5.682;2023-05-16T10:45:08;5.77;;;1.73;;
64094;SDS011;50353;51.420;5.682;2023-05-16T10:47:53;8.85;;;2.10;;
64094;SDS011;50353;51.420;5.682;2023-05-16T11:01:20;5.38;;;1.75;;
64094;SDS011;50353;51.420;5.682;2023-05-16T11:06:27;9.48;;;1.70;;
64094;SDS011;50353;51.420;5.682;2023-05-16T11:09:05;7.53;;;1.60;;
64094;SDS011;50353;51.420;5.682;2023-05-16T11:14:23;5.07;;;1.63;;
64094;SDS011;50353;51.420;5.682;2023-05-16T11:19:45;5.30;;;1.70;;
64094;SDS011;50353;51.420;5.682;2023-05-16T11:27:33;8.60;;;2.05;;
64094;SDS011;50353;51.420;5.682;2023-05-16T11:32:34;7.03;;;2.13;;
64094;SDS011;50353;51.420;5.682;2023-05-16T11:35:01;4.72;;;1.60;;
64094;SDS011;50353;51.420;5.682;2023-05-16T11:37:27;6.47;;;1.90;;
64094;SDS011;50353;51.420;5.682;2023-05-16T11:39:57;5.93;;;1.75;;
64094;SDS011;50353;51.420;5.682;2023-05-16T11:42:23;7.20;;;1.73;;
64094;SDS011;50353;51.420;5.682;2023-05-16T11:44:49;5.63;;;1.80;;
64094;SDS011;50353;51.420;5.682;2023-05-16T11:47:14;6.20;;;1.90;;
64094;SDS011;50353;51.420;5.682;2023-05-16T11:49:39;9.57;;;1.85;;
64094;SDS011;50353;51.420;5.682;2023-05-16T11:52:06;5.40;;;1.87;;
64094;SDS011;50353;51.420;5.682;2023-05-16T11:54:32;8.05;;;1.70;;
64094;SDS011;50353;51.420;5.682;2023-05-16T11:56:58;8.00;;;2.37;;
64094;SDS011;50353;51.420;5.682;2023-05-16T11:59:24;5.97;;;2.10;;
64094;SDS011;50353;51.420;5.682;2023-05-16T12:01:50;7.25;;;2.10;;
64094;SDS011;50353;51.420;5.682;2023-05-16T12:04:16;10.97;;;2.10;;
64094;SDS011;50353;51.420;5.682;2023-05-16T12:06:42;7.47;;;2.13;;
64094;SDS011;50353;51.420;5.682;2023-05-16T12:09:12;10.15;;;2.08;;
64094;SDS011;50353;51.420;5.682;2023-05-16T12:11:39;8.38;;;2.33;;
64094;SDS011;50353;51.420;5.682;2023-05-16T12:16:38;7.22;;;2.30;;
64094;SDS011;50353;51.420;5.682;2023-05-16T12:19:06;15.07;;;2.80;;
64094;SDS011;50353;51.420;5.682;2023-05-16T12:21:32;11.23;;;1.92;;
64094;SDS011;50353;51.420;5.682;2023-05-16T12:23:58;10.20;;;1.90;;
64094;SDS011;50353;51.420;5.682;2023-05-16T12:26:24;7.20;;;2.20;;
64094;SDS011;50353;51.420;5.682;2023-05-16T12:28:55;6.93;;;2.10;;
64094;SDS011;50353;51.420;5.682;2023-05-16T12:31:24;11.23;;;2.40;;
64094;SDS011;50353;51.420;5.682;2023-05-16T12:33:53;8.67;;;2.17;;
64094;SDS011;50353;51.420;5.682;2023-05-16T12:36:19;7.75;;;2.05;;
64094;SDS011;50353;51.420;5.682;2023-05-16T12:38:45;6.63;;;2.28;;
64094;SDS011;50353;51.420;5.682;2023-05-16T12:41:17;9.07;;;2.17;;
64094;SDS011;50353;51.420;5.682;2023-05-16T12:43:44;6.00;;;2.20;;
64094;SDS011;50353;51.420;5.682;2023-05-16T12:46:09;4.63;;;1.92;;
64094;SDS011;50353;51.420;5.682;2023-05-16T12:48:38;7.47;;;2.20;;
64094;SDS011;50353;51.420;5.682;2023-05-16T12:51:15;10.23;;;2.10;;
64094;SDS011;50353;51.420;5.682;2023-05-16T12:53:44;5.15;;;1.67;;
64094;SDS011;50353;51.420;5.682;2023-05-16T12:56:11;6.72;;;2.10;;
64094;SDS011;50353;51.420;5.682;2023-05-16T12:58:37;7.03;;;2.05;;
64094;SDS011;50353;51.420;5.682;2023-05-16T13:01:03;7.75;;;2.40;;
64094;SDS011;50353;51.420;5.682;2023-05-16T13:03:30;6.75;;;1.90;;
64094;SDS011;50353;51.420;5.682;2023-05-16T13:05:56;6.15;;;2.03;;
64094;SDS011;50353;51.420;5.682;2023-05-16T13:08:22;8.77;;;1.77;;
64094;SDS011;50353;51.420;5.682;2023-05-16T13:10:47;7.77;;;2.20;;
64094;SDS011;50353;51.420;5.682;2023-05-16T13:13:12;6.00;;;1.93;;
64094;SDS011;50353;51.420;5.682;2023-05-16T13:15:39;5.55;;;1.85;;
64094;SDS011;50353;51.420;5.682;2023-05-16T13:20:31;13.20;;;2.37;;
64094;SDS011;50353;51.420;5.682;2023-05-16T13:22:56;9.50;;;2.25;;
64094;SDS011;50353;51.420;5.682;2023-05-16T13:25:22;8.48;;;2.10;;
64094;SDS011;50353;51.420;5.682;2023-05-16T13:27:47;7.77;;;2.20;;
64094;SDS011;50353;51.420;5.682;2023-05-16T13:30:13;10.48;;;2.17;;
64094;SDS011;50353;51.420;5.682;2023-05-16T13:32:39;6.18;;;2.00;;
64094;SDS011;50353;51.420;5.682;2023-05-16T13:35:04;6.17;;;2.00;;
64094;SDS011;50353;51.420;5.682;2023-05-16T13:37:30;10.68;;;2.10;;
64094;SDS011;50353;51.420;5.682;2023-05-16T13:39:55;5.47;;;2.25;;
64094;SDS011;50353;51.420;5.682;2023-05-16T13:42:21;10.83;;;2.53;;
64094;SDS011;50353;51.420;5.682;2023-05-16T13:44:46;10.38;;;2.67;;
64094;SDS011;50353;51.420;5.682;2023-05-16T13:47:11;9.35;;;2.25;;
64094;SDS011;50353;51.420;5.682;2023-05-16T13:49:37;5.70;;;2.00;;
64094;SDS011;50353;51.420;5.682;2023-05-16T13:52:03;7.97;;;2.05;;
64094;SDS011;50353;51.420;5.682;2023-05-16T13:54:28;8.03;;;2.43;;
64094;SDS011;50353;51.420;5.682;2023-05-16T13:56:54;11.23;;;2.77;;
64094;SDS011;50353;51.420;5.682;2023-05-16T13:59:19;7.63;;;2.07;;
64094;SDS011;50353;51.420;5.682;2023-05-16T14:01:45;6.40;;;2.22;;
64094;SDS011;50353;51.420;5.682;2023-05-16T14:04:10;9.40;;;2.10;;
64094;SDS011;50353;51.420;5.682;2023-05-16T14:06:36;12.02;;;2.60;;
64094;SDS011;50353;51.420;5.682;2023-05-16T14:09:02;7.18;;;2.10;;
64094;SDS011;50353;51.420;5.682;2023-05-16T14:11:28;3.10;;;1.57;;
64094;SDS011;50353;51.420;5.682;2023-05-16T14:13:53;7.55;;;1.88;;
64094;SDS011;50353;51.420;5.682;2023-05-16T14:16:18;6.73;;;2.10;;
64094;SDS011;50353;51.420;5.682;2023-05-16T14:18:44;9.97;;;2.30;;
64094;SDS011;50353;51.420;5.682;2023-05-16T14:21:09;6.70;;;1.97;;
64094;SDS011;50353;51.420;5.682;2023-05-16T14:23:34;7.00;;;2.13;;
64094;SDS011;50353;51.420;5.682;2023-05-16T14:26:00;5.55;;;1.77;;
64094;SDS011;50353;51.420;5.682;2023-05-16T14:28:26;7.60;;;2.38;;
64094;SDS011;50353;51.420;5.682;2023-05-16T14:30:52;12.87;;;2.30;;
64094;SDS011;50353;51.420;5.682;2023-05-16T14:33:17;8.33;;;2.80;;
64094;SDS011;50353;51.420;5.682;2023-05-16T14:35:42;8.03;;;1.97;;
64094;SDS011;50353;51.420;5.682;2023-05-16T14:38:07;7.72;;;2.28;;
64094;SDS011;50353;51.420;5.682;2023-05-16T14:40:33;6.63;;;2.33;;
64094;SDS011;50353;51.420;5.682;2023-05-16T14:42:59;7.45;;;1.88;;
64094;SDS011;50353;51.420;5.682;2023-05-16T14:45:24;6.93;;;2.25;;
64094;SDS011;50353;51.420;5.682;2023-05-16T14:47:50;4.65;;;1.85;;
64094;SDS011;50353;51.420;5.682;2023-05-16T14:50:16;7.63;;;2.40;;
64094;SDS011;50353;51.420;5.682;2023-05-16T14:52:41;13.82;;;3.00;;
64094;SDS011;50353;51.420;5.682;2023-05-16T14:55:07;10.32;;;2.30;;
64094;SDS011;50353;51.420;5.682;2023-05-16T14:57:32;8.02;;;2.53;;
64094;SDS011;50353;51.420;5.682;2023-05-16T14:59:58;7.95;;;2.17;;
64094;SDS011;50353;51.420;5.682;2023-05-16T15:02:23;4.82;;;1.80;;
64094;SDS011;50353;51.420;5.682;2023-05-16T15:07:16;11.30;;;2.77;;
64094;SDS011;50353;51.420;5.682;2023-05-16T15:09:41;6.53;;;2.03;;
64094;SDS011;50353;51.420;5.682;2023-05-16T15:12:06;6.43;;;2.13;;
64094;SDS011;50353;51.420;5.682;2023-05-16T15:14:32;6.67;;;2.20;;
64094;SDS011;50353;51.420;5.682;2023-05-16T15:16:58;8.35;;;2.58;;
64094;SDS011;50353;51.420;5.682;2023-05-16T15:19:23;10.88;;;3.40;;
64094;SDS011;50353;51.420;5.682;2023-05-16T15:21:49;8.85;;;2.30;;
64094;SDS011;50353;51.420;5.682;2023-05-16T15:24:14;8.35;;;2.22;;
64094;SDS011;50353;51.420;5.682;2023-05-16T15:26:41;7.78;;;2.80;;
64094;SDS011;50353;51.420;5.682;2023-05-16T15:29:06;6.75;;;2.58;;
64094;SDS011;50353;51.420;5.682;2023-05-16T15:31:31;8.15;;;2.10;;
64094;SDS011;50353;51.420;5.682;2023-05-16T15:33:57;14.03;;;2.50;;